sensor_id;sensor_type;location;lat;lon;timestamp;P1;durP1;ratioP1;P2;durP2;ratioP2
72895;SDS011;61036;53.224;6.554;2024-02-26T00:00:00;20.10;;;14.30;;
72895;SDS011;61036;53.224;6.554;2024-02-26T00:02:25;19.13;;;13.80;;
72895;SDS011;61036;53.224;6.554;2024-02-26T00:04:51;21.73;;;14.43;;
72895;SDS011;61036;53.224;6.554;2024-02-26T00:07:17;20.00;;;14.23;;
72895;SDS011;61036;53.224;6.554;2024-02-26T00:09:42;23.50;;;14.43;;
72895;SDS011;61036;53.224;6.554;2024-02-26T00:12:08;21.97;;;14.93;;
72895;SDS011;61036;53.224;6.554;2024-02-26T00:14:33;19.70;;;14.53;;
72895;SDS011;61036;53.224;6.554;2024-02-26T00:16:59;20.90;;;14.73;;
72895;SDS011;61036;53.224;6.554;2024-02-26T00:19:25;19.03;;;13.37;;
72895;SDS011;61036;53.224;6.554;2024-02-26T00:21:50;21.53;;;15.10;;
72895;SDS011;61036;53.224;6.554;2024-02-26T00:24:16;19.27;;;14.27;;
72895;SDS011;61036;53.224;6.554;2024-02-26T00:26:41;20.50;;;14.97;;
72895;SDS011;61036;53.224;6.554;2024-02-26T00:29:07;22.53;;;15.87;;
72895;SDS011;61036;53.224;6.554;2024-02-26T00:31:32;23.30;;;16.30;;
72895;SDS011;61036;53.224;6.554;2024-02-26T00:33:58;18.97;;;14.27;;
72895;SDS011;61036;53.224;6.554;2024-02-26T00:36:23;20.67;;;14.53;;
72895;SDS011;61036;53.224;6.554;2024-02-26T00:38:49;21.03;;;15.50;;
72895;SDS011;61036;53.224;6.554;2024-02-26T00:41:17;18.60;;;14.37;;
72895;SDS011;61036;53.224;6.554;2024-02-26T00:43:44;18.97;;;14.20;;
72895;SDS011;61036;53.224;6.554;2024-02-26T00:46:09;18.83;;;14.27;;
72895;SDS011;61036;53.224;6.554;2024-02-26T00:48:35;18.03;;;13.57;;
72895;SDS011;61036;53.224;6.554;2024-02-26T00:51:01;19.23;;;14.10;;
72895;SDS011;61036;53.224;6.554;2024-02-26T00:53:26;17.90;;;13.33;;
72895;SDS011;61036;53.224;6.554;2024-02-26T00:55:52;17.10;;;13.33;;
72895;SDS011;61036;53.224;6.554;2024-02-26T00:58:17;18.07;;;13.30;;
72895;SDS011;61036;53.224;6.554;2024-02-26T01:00:44;18.33;;;13.93;;
72895;SDS011;61036;53.224;6.554;2024-02-26T01:03:09;17.23;;;13.23;;
72895;SDS011;61036;53.224;6.554;2024-02-26T01:05:35;16.80;;;12.67;;
72895;SDS011;61036;53.224;6.554;2024-02-26T01:08:01;17.97;;;12.83;;
72895;SDS011;61036;53.224;6.554;2024-02-26T01:10:27;17.13;;;12.80;;
72895;SDS011;61036;53.224;6.554;2024-02-26T01:12:53;18.27;;;12.60;;
72895;SDS011;61036;53.224;6.554;2024-02-26T01:15:18;16.30;;;11.80;;
72895;SDS011;61036;53.224;6.554;2024-02-26T01:17:47;15.87;;;12.13;;
72895;SDS011;61036;53.224;6.554;2024-02-26T01:20:12;14.70;;;11.27;;
72895;SDS011;61036;53.224;6.554;2024-02-26T01:22:38;15.20;;;11.60;;
72895;SDS011;61036;53.224;6.554;2024-02-26T01:25:05;15.70;;;11.73;;
72895;SDS011;61036;53.224;6.554;2024-02-26T01:27:32;15.47;;;11.07;;
72895;SDS011;61036;53.224;6.554;2024-02-26T01:29:58;15.63;;;10.63;;
72895;SDS011;61036;53.224;6.554;2024-02-26T01:32:23;12.40;;;9.53;;
72895;SDS011;61036;53.224;6.554;2024-02-26T01:34:49;15.97;;;10.57;;
72895;SDS011;61036;53.224;6.554;2024-02-26T01:37:14;12.40;;;8.90;;
72895;SDS011;61036;53.224;6.554;2024-02-26T01:39:39;12.00;;;9.70;;
72895;SDS011;61036;53.224;6.554;2024-02-26T01:42:06;11.90;;;8.80;;
72895;SDS011;61036;53.224;6.554;2024-02-26T01:44:32;13.33;;;9.60;;
72895;SDS011;61036;53.224;6.554;2024-02-26T01:46:58;11.17;;;8.83;;
72895;SDS011;61036;53.224;6.554;2024-02-26T01:49:26;10.73;;;8.87;;
72895;SDS011;61036;53.224;6.554;2024-02-26T01:51:53;12.27;;;9.13;;
72895;SDS011;61036;53.224;6.554;2024-02-26T01:54:19;12.90;;;8.83;;
72895;SDS011;61036;53.224;6.554;2024-02-26T01:56:46;11.47;;;9.13;;
72895;SDS011;61036;53.224;6.554;2024-02-26T01:59:11;11.93;;;8.73;;
72895;SDS011;61036;53.224;6.554;2024-02-26T02:01:37;11.87;;;9.03;;
72895;SDS011;61036;53.224;6.554;2024-02-26T02:04:06;12.73;;;8.90;;
72895;SDS011;61036;53.224;6.554;2024-02-26T02:06:31;11.53;;;8.83;;
72895;SDS011;61036;53.224;6.554;2024-02-26T02:08:58;11.40;;;7.87;;
72895;SDS011;61036;53.224;6.554;2024-02-26T02:11:25;11.17;;;8.07;;
72895;SDS011;61036;53.224;6.554;2024-02-26T02:13:51;11.77;;;8.17;;
72895;SDS011;61036;53.224;6.554;2024-02-26T02:16:16;12.70;;;7.97;;
72895;SDS011;61036;53.224;6.554;2024-02-26T02:18:42;11.20;;;7.63;;
72895;SDS011;61036;53.224;6.554;2024-02-26T02:21:07;11.07;;;7.37;;
72895;SDS011;61036;53.224;6.554;2024-02-26T02:23:33;9.83;;;7.53;;
72895;SDS011;61036;53.224;6.554;2024-02-26T02:25:58;10.40;;;7.40;;
72895;SDS011;61036;53.224;6.554;2024-02-26T02:28:25;10.70;;;8.20;;
72895;SDS011;61036;53.224;6.554;2024-02-26T02:30:52;10.03;;;7.43;;
72895;SDS011;61036;53.224;6.554;2024-02-26T02:33:19;9.83;;;7.07;;
72895;SDS011;61036;53.224;6.554;2024-02-26T02:35:44;11.60;;;8.87;;
72895;SDS011;61036;53.224;6.554;2024-02-26T02:38:11;11.57;;;7.57;;
72895;SDS011;61036;53.224;6.554;2024-02-26T02:40:36;9.83;;;7.20;;
72895;SDS011;61036;53.224;6.554;2024-02-26T02:43:02;11.13;;;7.20;;
72895;SDS011;61036;53.224;6.554;2024-02-26T02:45:30;10.13;;;7.77;;
72895;SDS011;61036;53.224;6.554;2024-02-26T02:47:56;11.67;;;7.07;;
72895;SDS011;61036;53.224;6.554;2024-02-26T02:50:21;9.60;;;6.63;;
72895;SDS011;61036;53.224;6.554;2024-02-26T02:52:47;9.03;;;7.17;;
72895;SDS011;61036;53.224;6.554;2024-02-26T02:55:13;10.87;;;7.67;;
72895;SDS011;61036;53.224;6.554;2024-02-26T02:57:38;9.40;;;6.87;;
72895;SDS011;61036;53.224;6.554;2024-02-26T03:00:09;9.60;;;6.77;;
72895;SDS011;61036;53.224;6.554;2024-02-26T03:02:36;11.67;;;7.50;;
72895;SDS011;61036;53.224;6.554;2024-02-26T03:05:04;10.03;;;6.80;;
72895;SDS011;61036;53.224;6.554;2024-02-26T03:07:30;10.23;;;6.53;;
72895;SDS011;61036;53.224;6.554;2024-02-26T03:09:56;10.47;;;6.13;;
72895;SDS011;61036;53.224;6.554;2024-02-26T03:12:21;10.13;;;6.77;;
72895;SDS011;61036;53.224;6.554;2024-02-26T03:14:47;9.13;;;6.30;;
72895;SDS011;61036;53.224;6.554;2024-02-26T03:17:13;9.67;;;6.53;;
72895;SDS011;61036;53.224;6.554;2024-02-26T03:19:39;8.53;;;6.10;;
72895;SDS011;61036;53.224;6.554;2024-02-26T03:22:04;7.83;;;5.97;;
72895;SDS011;61036;53.224;6.554;2024-02-26T03:24:30;9.80;;;6.20;;
72895;SDS011;61036;53.224;6.554;2024-02-26T03:26:55;9.57;;;6.40;;
72895;SDS011;61036;53.224;6.554;2024-02-26T03:29:21;7.90;;;5.80;;
72895;SDS011;61036;53.224;6.554;2024-02-26T03:31:47;8.13;;;5.87;;
72895;SDS011;61036;53.224;6.554;2024-02-26T03:34:12;9.13;;;6.00;;
72895;SDS011;61036;53.224;6.554;2024-02-26T03:36:39;10.80;;;6.43;;
72895;SDS011;61036;53.224;6.554;2024-02-26T03:39:06;8.40;;;5.67;;
72895;SDS011;61036;53.224;6.554;2024-02-26T03:41:35;8.57;;;6.50;;
72895;SDS011;61036;53.224;6.554;2024-02-26T03:44:01;10.50;;;5.83;;
72895;SDS011;61036;53.224;6.554;2024-02-26T03:46:27;9.43;;;6.00;;
72895;SDS011;61036;53.224;6.554;2024-02-26T03:48:53;8.07;;;5.30;;
72895;SDS011;61036;53.224;6.554;2024-02-26T03:51:18;7.27;;;5.40;;
72895;SDS011;61036;53.224;6.554;2024-02-26T03:53:44;7.13;;;4.90;;
72895;SDS011;61036;53.224;6.554;2024-02-26T03:56:11;8.03;;;5.30;;
72895;SDS011;61036;53.224;6.554;2024-02-26T03:58:38;8.67;;;5.07;;
72895;SDS011;61036;53.224;6.554;2024-02-26T04:01:04;8.80;;;5.40;;
72895;SDS011;61036;53.224;6.554;2024-02-26T04:03:32;8.07;;;4.77;;
72895;SDS011;61036;53.224;6.554;2024-02-26T04:05:57;8.50;;;5.33;;
72895;SDS011;61036;53.224;6.554;2024-02-26T04:08:23;9.53;;;4.90;;
72895;SDS011;61036;53.224;6.554;2024-02-26T04:10:48;8.07;;;5.03;;
72895;SDS011;61036;53.224;6.554;2024-02-26T04:13:13;9.03;;;6.00;;
72895;SDS011;61036;53.224;6.554;2024-02-26T04:15:39;8.83;;;5.37;;
72895;SDS011;61036;53.224;6.554;2024-02-26T04:18:05;10.23;;;5.87;;
72895;SDS011;61036;53.224;6.554;2024-02-26T04:20:31;8.53;;;5.23;;
72895;SDS011;61036;53.224;6.554;2024-02-26T04:22:56;7.73;;;4.87;;
72895;SDS011;61036;53.224;6.554;2024-02-26T04:25:22;9.00;;;5.73;;
72895;SDS011;61036;53.224;6.554;2024-02-26T04:27:47;8.07;;;4.87;;
72895;SDS011;61036;53.224;6.554;2024-02-26T04:30:13;8.03;;;4.80;;
72895;SDS011;61036;53.224;6.554;2024-02-26T04:32:38;7.97;;;4.97;;
72895;SDS011;61036;53.224;6.554;2024-02-26T04:35:04;8.80;;;5.17;;
72895;SDS011;61036;53.224;6.554;2024-02-26T04:37:30;7.40;;;4.73;;
72895;SDS011;61036;53.224;6.554;2024-02-26T04:39:58;7.53;;;4.60;;
72895;SDS011;61036;53.224;6.554;2024-02-26T04:42:24;7.50;;;4.63;;
72895;SDS011;61036;53.224;6.554;2024-02-26T04:44:50;6.70;;;4.57;;
72895;SDS011;61036;53.224;6.554;2024-02-26T04:47:15;6.60;;;3.67;;
72895;SDS011;61036;53.224;6.554;2024-02-26T04:49:41;6.77;;;4.07;;
72895;SDS011;61036;53.224;6.554;2024-02-26T04:52:06;6.70;;;3.90;;
72895;SDS011;61036;53.224;6.554;2024-02-26T04:54:32;8.10;;;4.77;;
72895;SDS011;61036;53.224;6.554;2024-02-26T04:56:57;6.83;;;4.10;;
72895;SDS011;61036;53.224;6.554;2024-02-26T04:59:23;7.80;;;4.40;;
72895;SDS011;61036;53.224;6.554;2024-02-26T05:01:49;6.43;;;3.70;;
72895;SDS011;61036;53.224;6.554;2024-02-26T05:04:16;8.20;;;4.00;;
72895;SDS011;61036;53.224;6.554;2024-02-26T05:06:42;7.87;;;3.80;;
72895;SDS011;61036;53.224;6.554;2024-02-26T05:09:07;5.50;;;3.43;;
72895;SDS011;61036;53.224;6.554;2024-02-26T05:11:33;7.70;;;3.83;;
72895;SDS011;61036;53.224;6.554;2024-02-26T05:13:59;8.40;;;3.70;;
72895;SDS011;61036;53.224;6.554;2024-02-26T05:16:26;5.53;;;3.43;;
72895;SDS011;61036;53.224;6.554;2024-02-26T05:18:52;5.33;;;3.33;;
72895;SDS011;61036;53.224;6.554;2024-02-26T05:21:18;6.93;;;3.67;;
72895;SDS011;61036;53.224;6.554;2024-02-26T05:23:43;5.47;;;3.37;;
72895;SDS011;61036;53.224;6.554;2024-02-26T05:26:10;5.50;;;3.13;;
72895;SDS011;61036;53.224;6.554;2024-02-26T05:28:36;6.00;;;3.77;;
72895;SDS011;61036;53.224;6.554;2024-02-26T05:31:04;7.70;;;3.47;;
72895;SDS011;61036;53.224;6.554;2024-02-26T05:33:30;6.77;;;3.73;;
72895;SDS011;61036;53.224;6.554;2024-02-26T05:35:56;6.63;;;3.50;;
72895;SDS011;61036;53.224;6.554;2024-02-26T05:38:21;5.50;;;3.43;;
72895;SDS011;61036;53.224;6.554;2024-02-26T05:40:47;7.87;;;3.53;;
72895;SDS011;61036;53.224;6.554;2024-02-26T05:43:12;5.77;;;3.40;;
72895;SDS011;61036;53.224;6.554;2024-02-26T05:45:40;8.13;;;3.50;;
72895;SDS011;61036;53.224;6.554;2024-02-26T05:48:06;6.13;;;3.20;;
72895;SDS011;61036;53.224;6.554;2024-02-26T05:50:32;6.70;;;3.40;;
72895;SDS011;61036;53.224;6.554;2024-02-26T05:52:57;7.50;;;3.33;;
72895;SDS011;61036;53.224;6.554;2024-02-26T05:55:22;5.97;;;3.40;;
72895;SDS011;61036;53.224;6.554;2024-02-26T05:57:48;5.57;;;3.33;;
72895;SDS011;61036;53.224;6.554;2024-02-26T06:00:14;5.80;;;3.13;;
72895;SDS011;61036;53.224;6.554;2024-02-26T06:02:40;4.90;;;2.97;;
72895;SDS011;61036;53.224;6.554;2024-02-26T06:05:06;5.97;;;3.37;;
72895;SDS011;61036;53.224;6.554;2024-02-26T06:07:34;4.47;;;2.60;;
72895;SDS011;61036;53.224;6.554;2024-02-26T06:10:00;4.77;;;2.80;;
72895;SDS011;61036;53.224;6.554;2024-02-26T06:12:25;4.70;;;2.80;;
72895;SDS011;61036;53.224;6.554;2024-02-26T06:14:53;4.77;;;3.17;;
72895;SDS011;61036;53.224;6.554;2024-02-26T06:17:19;4.77;;;2.70;;
72895;SDS011;61036;53.224;6.554;2024-02-26T06:19:44;5.50;;;3.03;;
72895;SDS011;61036;53.224;6.554;2024-02-26T06:22:10;5.83;;;3.40;;
72895;SDS011;61036;53.224;6.554;2024-02-26T06:24:35;4.03;;;2.60;;
72895;SDS011;61036;53.224;6.554;2024-02-26T06:27:02;5.77;;;2.70;;
72895;SDS011;61036;53.224;6.554;2024-02-26T06:29:28;4.90;;;2.93;;
72895;SDS011;61036;53.224;6.554;2024-02-26T06:31:54;5.60;;;2.93;;
72895;SDS011;61036;53.224;6.554;2024-02-26T06:34:20;4.50;;;2.80;;
72895;SDS011;61036;53.224;6.554;2024-02-26T06:36:46;4.80;;;3.17;;
72895;SDS011;61036;53.224;6.554;2024-02-26T06:39:12;4.80;;;3.20;;
72895;SDS011;61036;53.224;6.554;2024-02-26T06:41:37;4.90;;;2.97;;
72895;SDS011;61036;53.224;6.554;2024-02-26T06:44:04;4.40;;;2.70;;
72895;SDS011;61036;53.224;6.554;2024-02-26T06:46:30;4.37;;;2.83;;
72895;SDS011;61036;53.224;6.554;2024-02-26T06:48:56;5.27;;;3.00;;
72895;SDS011;61036;53.224;6.554;2024-02-26T06:51:22;5.23;;;3.00;;
72895;SDS011;61036;53.224;6.554;2024-02-26T06:53:47;4.03;;;2.70;;
72895;SDS011;61036;53.224;6.554;2024-02-26T06:56:14;5.33;;;3.07;;
72895;SDS011;61036;53.224;6.554;2024-02-26T06:58:39;6.73;;;3.20;;
72895;SDS011;61036;53.224;6.554;2024-02-26T07:01:05;6.13;;;3.13;;
72895;SDS011;61036;53.224;6.554;2024-02-26T07:03:30;6.00;;;2.80;;
72895;SDS011;61036;53.224;6.554;2024-02-26T07:05:56;6.93;;;2.93;;
72895;SDS011;61036;53.224;6.554;2024-02-26T07:08:22;5.83;;;2.97;;
72895;SDS011;61036;53.224;6.554;2024-02-26T07:10:47;4.67;;;3.00;;
72895;SDS011;61036;53.224;6.554;2024-02-26T07:13:13;6.93;;;2.87;;
72895;SDS011;61036;53.224;6.554;2024-02-26T07:15:38;7.17;;;4.53;;
72895;SDS011;61036;53.224;6.554;2024-02-26T07:18:04;6.57;;;3.20;;
72895;SDS011;61036;53.224;6.554;2024-02-26T07:20:30;6.60;;;2.90;;
72895;SDS011;61036;53.224;6.554;2024-02-26T07:22:56;5.20;;;2.87;;
72895;SDS011;61036;53.224;6.554;2024-02-26T07:25:22;5.33;;;2.93;;
72895;SDS011;61036;53.224;6.554;2024-02-26T07:27:49;5.57;;;2.80;;
72895;SDS011;61036;53.224;6.554;2024-02-26T07:30:15;5.10;;;2.90;;
72895;SDS011;61036;53.224;6.554;2024-02-26T07:32:42;5.47;;;3.10;;
72895;SDS011;61036;53.224;6.554;2024-02-26T07:35:08;6.60;;;2.90;;
72895;SDS011;61036;53.224;6.554;2024-02-26T07:37:34;4.20;;;2.50;;
72895;SDS011;61036;53.224;6.554;2024-02-26T07:40:00;6.03;;;2.80;;
72895;SDS011;61036;53.224;6.554;2024-02-26T07:42:25;5.70;;;2.80;;
72895;SDS011;61036;53.224;6.554;2024-02-26T07:44:51;4.77;;;2.83;;
72895;SDS011;61036;53.224;6.554;2024-02-26T07:47:18;6.37;;;2.70;;
72895;SDS011;61036;53.224;6.554;2024-02-26T07:49:43;4.83;;;2.80;;
72895;SDS011;61036;53.224;6.554;2024-02-26T07:52:09;4.30;;;2.63;;
72895;SDS011;61036;53.224;6.554;2024-02-26T07:54:35;5.17;;;2.40;;
72895;SDS011;61036;53.224;6.554;2024-02-26T07:57:01;6.00;;;2.97;;
72895;SDS011;61036;53.224;6.554;2024-02-26T07:59:28;4.37;;;2.30;;
72895;SDS011;61036;53.224;6.554;2024-02-26T08:01:54;5.33;;;2.63;;
72895;SDS011;61036;53.224;6.554;2024-02-26T08:04:19;3.73;;;2.30;;
72895;SDS011;61036;53.224;6.554;2024-02-26T08:06:45;4.97;;;2.53;;
72895;SDS011;61036;53.224;6.554;2024-02-26T08:09:10;4.70;;;2.70;;
72895;SDS011;61036;53.224;6.554;2024-02-26T08:11:38;5.47;;;2.37;;
72895;SDS011;61036;53.224;6.554;2024-02-26T08:14:03;3.77;;;2.17;;
72895;SDS011;61036;53.224;6.554;2024-02-26T08:16:29;3.90;;;2.10;;
72895;SDS011;61036;53.224;6.554;2024-02-26T08:18:54;4.33;;;2.10;;
72895;SDS011;61036;53.224;6.554;2024-02-26T08:21:20;3.43;;;1.90;;
72895;SDS011;61036;53.224;6.554;2024-02-26T08:23:45;3.13;;;1.80;;
72895;SDS011;61036;53.224;6.554;2024-02-26T08:26:11;6.73;;;1.97;;
72895;SDS011;61036;53.224;6.554;2024-02-26T08:28:37;4.20;;;1.90;;
72895;SDS011;61036;53.224;6.554;2024-02-26T08:31:03;4.40;;;2.20;;
72895;SDS011;61036;53.224;6.554;2024-02-26T08:33:29;3.80;;;1.70;;
72895;SDS011;61036;53.224;6.554;2024-02-26T08:35:55;3.27;;;1.90;;
72895;SDS011;61036;53.224;6.554;2024-02-26T08:38:22;2.83;;;1.60;;
72895;SDS011;61036;53.224;6.554;2024-02-26T08:40:48;3.10;;;1.57;;
72895;SDS011;61036;53.224;6.554;2024-02-26T08:43:14;4.47;;;2.10;;
72895;SDS011;61036;53.224;6.554;2024-02-26T08:45:39;4.93;;;2.20;;
72895;SDS011;61036;53.224;6.554;2024-02-26T08:48:05;3.43;;;2.13;;
72895;SDS011;61036;53.224;6.554;2024-02-26T08:50:31;5.13;;;2.27;;
72895;SDS011;61036;53.224;6.554;2024-02-26T08:52:57;3.90;;;2.10;;
72895;SDS011;61036;53.224;6.554;2024-02-26T08:55:22;3.27;;;2.00;;
72895;SDS011;61036;53.224;6.554;2024-02-26T08:57:48;3.40;;;2.00;;
72895;SDS011;61036;53.224;6.554;2024-02-26T09:00:13;4.00;;;1.90;;
72895;SDS011;61036;53.224;6.554;2024-02-26T09:02:40;4.50;;;2.17;;
72895;SDS011;61036;53.224;6.554;2024-02-26T09:05:09;5.90;;;2.20;;
72895;SDS011;61036;53.224;6.554;2024-02-26T09:07:35;3.87;;;2.30;;
72895;SDS011;61036;53.224;6.554;2024-02-26T09:10:01;4.47;;;2.30;;
72895;SDS011;61036;53.224;6.554;2024-02-26T09:12:27;5.30;;;2.20;;
72895;SDS011;61036;53.224;6.554;2024-02-26T09:14:52;4.30;;;2.20;;
72895;SDS011;61036;53.224;6.554;2024-02-26T09:17:18;6.63;;;2.90;;
72895;SDS011;61036;53.224;6.554;2024-02-26T09:19:43;4.33;;;2.20;;
72895;SDS011;61036;53.224;6.554;2024-02-26T09:22:09;5.13;;;2.73;;
72895;SDS011;61036;53.224;6.554;2024-02-26T09:24:35;5.33;;;2.37;;
72895;SDS011;61036;53.224;6.554;2024-02-26T09:27:01;8.13;;;4.30;;
72895;SDS011;61036;53.224;6.554;2024-02-26T09:29:26;3.57;;;2.30;;
72895;SDS011;61036;53.224;6.554;2024-02-26T09:31:52;6.07;;;2.40;;
72895;SDS011;61036;53.224;6.554;2024-02-26T09:34:18;4.40;;;2.53;;
72895;SDS011;61036;53.224;6.554;2024-02-26T09:36:43;4.77;;;2.70;;
72895;SDS011;61036;53.224;6.554;2024-02-26T09:39:09;4.30;;;2.60;;
72895;SDS011;61036;53.224;6.554;2024-02-26T09:41:36;5.57;;;3.10;;
72895;SDS011;61036;53.224;6.554;2024-02-26T09:44:02;6.50;;;2.70;;
72895;SDS011;61036;53.224;6.554;2024-02-26T09:46:30;6.30;;;2.60;;
72895;SDS011;61036;53.224;6.554;2024-02-26T09:48:55;5.40;;;2.63;;
72895;SDS011;61036;53.224;6.554;2024-02-26T09:51:24;6.00;;;3.13;;
72895;SDS011;61036;53.224;6.554;2024-02-26T09:53:51;5.57;;;3.10;;
72895;SDS011;61036;53.224;6.554;2024-02-26T09:56:17;5.60;;;2.50;;
72895;SDS011;61036;53.224;6.554;2024-02-26T09:58:43;6.43;;;2.97;;
72895;SDS011;61036;53.224;6.554;2024-02-26T10:01:11;5.13;;;2.50;;
72895;SDS011;61036;53.224;6.554;2024-02-26T10:03:41;6.10;;;2.40;;
72895;SDS011;61036;53.224;6.554;2024-02-26T10:06:13;4.87;;;2.30;;
72895;SDS011;61036;53.224;6.554;2024-02-26T10:08:39;4.63;;;2.50;;
72895;SDS011;61036;53.224;6.554;2024-02-26T10:11:06;3.90;;;1.83;;
72895;SDS011;61036;53.224;6.554;2024-02-26T10:13:34;6.60;;;2.20;;
72895;SDS011;61036;53.224;6.554;2024-02-26T10:16:01;3.90;;;1.73;;
72895;SDS011;61036;53.224;6.554;2024-02-26T10:18:47;3.13;;;1.80;;
72895;SDS011;61036;53.224;6.554;2024-02-26T10:21:15;4.37;;;1.80;;
72895;SDS011;61036;53.224;6.554;2024-02-26T10:23:43;3.90;;;1.50;;
72895;SDS011;61036;53.224;6.554;2024-02-26T10:26:10;4.40;;;1.80;;
72895;SDS011;61036;53.224;6.554;2024-02-26T10:28:44;7.07;;;2.33;;
72895;SDS011;61036;53.224;6.554;2024-02-26T10:31:11;3.43;;;1.60;;
72895;SDS011;61036;53.224;6.554;2024-02-26T10:33:39;2.93;;;1.60;;
72895;SDS011;61036;53.224;6.554;2024-02-26T10:36:06;3.77;;;2.00;;
72895;SDS011;61036;53.224;6.554;2024-02-26T10:38:33;4.53;;;2.00;;
72895;SDS011;61036;53.224;6.554;2024-02-26T10:41:04;4.30;;;1.80;;
72895;SDS011;61036;53.224;6.554;2024-02-26T10:43:31;4.97;;;2.53;;
72895;SDS011;61036;53.224;6.554;2024-02-26T10:45:57;3.40;;;1.70;;
72895;SDS011;61036;53.224;6.554;2024-02-26T10:48:23;4.07;;;1.57;;
72895;SDS011;61036;53.224;6.554;2024-02-26T10:50:49;3.37;;;1.67;;
72895;SDS011;61036;53.224;6.554;2024-02-26T10:53:21;3.20;;;1.67;;
72895;SDS011;61036;53.224;6.554;2024-02-26T10:55:54;3.90;;;1.70;;
72895;SDS011;61036;53.224;6.554;2024-02-26T10:58:22;4.33;;;1.73;;
72895;SDS011;61036;53.224;6.554;2024-02-26T11:00:52;3.97;;;1.83;;
72895;SDS011;61036;53.224;6.554;2024-02-26T11:03:20;4.93;;;1.97;;
72895;SDS011;61036;53.224;6.554;2024-02-26T11:05:49;3.97;;;2.10;;
72895;SDS011;61036;53.224;6.554;2024-02-26T11:08:19;6.23;;;2.20;;
72895;SDS011;61036;53.224;6.554;2024-02-26T11:10:47;3.93;;;2.13;;
72895;SDS011;61036;53.224;6.554;2024-02-26T11:13:16;5.20;;;2.40;;
72895;SDS011;61036;53.224;6.554;2024-02-26T11:15:44;4.60;;;2.00;;
72895;SDS011;61036;53.224;6.554;2024-02-26T11:18:13;5.20;;;2.50;;
72895;SDS011;61036;53.224;6.554;2024-02-26T11:20:40;6.27;;;2.50;;
72895;SDS011;61036;53.224;6.554;2024-02-26T11:23:07;5.50;;;2.73;;
72895;SDS011;61036;53.224;6.554;2024-02-26T11:25:34;4.57;;;2.27;;
72895;SDS011;61036;53.224;6.554;2024-02-26T11:28:03;4.40;;;2.40;;
72895;SDS011;61036;53.224;6.554;2024-02-26T11:30:32;6.43;;;3.00;;
72895;SDS011;61036;53.224;6.554;2024-02-26T11:33:00;7.30;;;4.40;;
72895;SDS011;61036;53.224;6.554;2024-02-26T11:35:26;5.00;;;3.20;;
72895;SDS011;61036;53.224;6.554;2024-02-26T11:37:57;6.00;;;3.33;;
72895;SDS011;61036;53.224;6.554;2024-02-26T11:40:23;5.13;;;3.00;;
72895;SDS011;61036;53.224;6.554;2024-02-26T11:42:50;5.83;;;2.87;;
72895;SDS011;61036;53.224;6.554;2024-02-26T11:48:11;6.03;;;3.27;;
72895;SDS011;61036;53.224;6.554;2024-02-26T11:50:54;5.40;;;3.27;;
72895;SDS011;61036;53.224;6.554;2024-02-26T11:53:32;5.47;;;3.40;;
72895;SDS011;61036;53.224;6.554;2024-02-26T11:59:05;5.50;;;3.43;;
72895;SDS011;61036;53.224;6.554;2024-02-26T12:01:38;7.20;;;3.90;;
72895;SDS011;61036;53.224;6.554;2024-02-26T12:06:41;7.50;;;4.00;;
72895;SDS011;61036;53.224;6.554;2024-02-26T12:09:08;7.97;;;4.30;;
72895;SDS011;61036;53.224;6.554;2024-02-26T12:11:37;7.87;;;4.10;;
72895;SDS011;61036;53.224;6.554;2024-02-26T12:14:05;5.90;;;3.93;;
72895;SDS011;61036;53.224;6.554;2024-02-26T12:16:35;9.57;;;4.67;;
72895;SDS011;61036;53.224;6.554;2024-02-26T12:19:07;8.13;;;4.83;;
72895;SDS011;61036;53.224;6.554;2024-02-26T12:21:37;7.27;;;4.70;;
72895;SDS011;61036;53.224;6.554;2024-02-26T12:24:12;8.43;;;4.50;;
72895;SDS011;61036;53.224;6.554;2024-02-26T12:26:39;7.13;;;4.67;;
72895;SDS011;61036;53.224;6.554;2024-02-26T12:29:05;8.37;;;4.93;;
72895;SDS011;61036;53.224;6.554;2024-02-26T12:31:32;8.07;;;4.80;;
72895;SDS011;61036;53.224;6.554;2024-02-26T12:34:01;10.33;;;5.77;;
72895;SDS011;61036;53.224;6.554;2024-02-26T12:36:27;13.87;;;8.53;;
72895;SDS011;61036;53.224;6.554;2024-02-26T12:38:54;8.40;;;4.80;;
72895;SDS011;61036;53.224;6.554;2024-02-26T12:41:20;8.33;;;5.37;;
72895;SDS011;61036;53.224;6.554;2024-02-26T12:43:46;7.30;;;5.23;;
72895;SDS011;61036;53.224;6.554;2024-02-26T12:46:12;8.43;;;4.80;;
72895;SDS011;61036;53.224;6.554;2024-02-26T12:48:44;9.50;;;5.17;;
72895;SDS011;61036;53.224;6.554;2024-02-26T12:51:11;8.63;;;4.77;;
72895;SDS011;61036;53.224;6.554;2024-02-26T12:53:38;7.63;;;5.13;;
72895;SDS011;61036;53.224;6.554;2024-02-26T12:56:05;8.50;;;5.70;;
72895;SDS011;61036;53.224;6.554;2024-02-26T12:58:33;9.97;;;5.70;;
72895;SDS011;61036;53.224;6.554;2024-02-26T13:00:58;8.97;;;5.57;;
72895;SDS011;61036;53.224;6.554;2024-02-26T13:03:24;10.00;;;5.43;;
72895;SDS011;61036;53.224;6.554;2024-02-26T13:05:50;8.43;;;5.20;;
72895;SDS011;61036;53.224;6.554;2024-02-26T13:08:19;9.67;;;5.80;;
72895;SDS011;61036;53.224;6.554;2024-02-26T13:10:46;9.27;;;5.90;;
72895;SDS011;61036;53.224;6.554;2024-02-26T13:13:14;9.83;;;6.50;;
72895;SDS011;61036;53.224;6.554;2024-02-26T13:15:41;8.87;;;5.67;;
72895;SDS011;61036;53.224;6.554;2024-02-26T13:18:13;12.33;;;6.27;;
72895;SDS011;61036;53.224;6.554;2024-02-26T13:20:40;9.30;;;5.60;;
72895;SDS011;61036;53.224;6.554;2024-02-26T13:23:06;8.77;;;5.43;;
72895;SDS011;61036;53.224;6.554;2024-02-26T13:25:34;10.03;;;5.70;;
72895;SDS011;61036;53.224;6.554;2024-02-26T13:28:16;8.37;;;5.47;;
72895;SDS011;61036;53.224;6.554;2024-02-26T13:30:55;10.27;;;5.90;;
72895;SDS011;61036;53.224;6.554;2024-02-26T13:33:22;8.83;;;5.90;;
72895;SDS011;61036;53.224;6.554;2024-02-26T13:35:48;11.97;;;6.13;;
72895;SDS011;61036;53.224;6.554;2024-02-26T13:38:14;9.97;;;6.37;;
72895;SDS011;61036;53.224;6.554;2024-02-26T13:40:40;8.70;;;5.80;;
72895;SDS011;61036;53.224;6.554;2024-02-26T13:43:06;8.60;;;5.50;;
72895;SDS011;61036;53.224;6.554;2024-02-26T13:45:35;8.80;;;6.20;;
72895;SDS011;61036;53.224;6.554;2024-02-26T13:48:04;8.43;;;5.63;;
72895;SDS011;61036;53.224;6.554;2024-02-26T13:50:39;8.43;;;5.40;;
72895;SDS011;61036;53.224;6.554;2024-02-26T13:53:10;9.37;;;6.40;;
72895;SDS011;61036;53.224;6.554;2024-02-26T13:55:36;7.87;;;5.77;;
72895;SDS011;61036;53.224;6.554;2024-02-26T13:58:01;8.83;;;5.60;;
72895;SDS011;61036;53.224;6.554;2024-02-26T14:00:28;9.47;;;6.10;;
72895;SDS011;61036;53.224;6.554;2024-02-26T14:02:57;11.30;;;6.20;;
72895;SDS011;61036;53.224;6.554;2024-02-26T14:05:23;10.77;;;6.40;;
72895;SDS011;61036;53.224;6.554;2024-02-26T14:07:48;9.77;;;6.80;;
72895;SDS011;61036;53.224;6.554;2024-02-26T14:10:14;10.57;;;6.60;;
72895;SDS011;61036;53.224;6.554;2024-02-26T14:12:41;11.20;;;6.77;;
72895;SDS011;61036;53.224;6.554;2024-02-26T14:15:07;17.60;;;10.77;;
72895;SDS011;61036;53.224;6.554;2024-02-26T14:17:33;9.00;;;6.27;;
72895;SDS011;61036;53.224;6.554;2024-02-26T14:19:59;9.27;;;6.00;;
72895;SDS011;61036;53.224;6.554;2024-02-26T14:22:24;10.87;;;6.60;;
72895;SDS011;61036;53.224;6.554;2024-02-26T14:24:52;11.60;;;7.10;;
72895;SDS011;61036;53.224;6.554;2024-02-26T14:27:18;9.77;;;7.00;;
72895;SDS011;61036;53.224;6.554;2024-02-26T14:29:45;9.20;;;6.50;;
72895;SDS011;61036;53.224;6.554;2024-02-26T14:32:11;9.63;;;6.23;;
72895;SDS011;61036;53.224;6.554;2024-02-26T14:34:37;11.93;;;6.50;;
72895;SDS011;61036;53.224;6.554;2024-02-26T14:37:03;9.73;;;6.10;;
72895;SDS011;61036;53.224;6.554;2024-02-26T14:39:30;15.37;;;9.57;;
72895;SDS011;61036;53.224;6.554;2024-02-26T14:41:57;11.63;;;6.03;;
72895;SDS011;61036;53.224;6.554;2024-02-26T14:44:23;9.47;;;5.50;;
72895;SDS011;61036;53.224;6.554;2024-02-26T14:46:49;7.87;;;5.50;;